PWSweather.com
Personal Weather Stations
Station Observations
KWAVA98665
Vancouver, WA 98665

Vancouver, WA 98665

Lat: 45.6827589, Lon: -122.63116100000002

Elevation: 262

Station Type: Davis VP2

http://www.bobsvp2wd.net

High Low Average
Temperature 37.7°F3.2°F 27.7°F-2.4°F 32.8°F0.4°F
Dew Point 31.9°F-0.1°F 25.4°F-3.7°F 29.6°F-1.3°F
Winds 4.6 mph NNW7.4 mph NNW Calm Calm 1.2 mph 1.9 mph
Wind Gusts 6.9 mph11.1 mph -- 2.2 mph3.5 mph
Humidity 97% 71% 88%
Pressure 30.43 in1030.50 in 30.08 in1018.60 in -
Precipitation 0.06 in1.50 in - -
Hour Temp Dew Point Humidity Winds Wind Gusts Pressure Precip Precip Rate Daily Precip Total
12:00 AM 31.3°F-0.4°C 30.3°F-0.9°C 96% 2.3 mph E3.7 kmh E 2.3 mph3.7 kmh 30.11 in1019.6 mb - 0.00 in0.0 mm 0.00 in0.0 mm
12:15 AM 31.4°F-0.3°C 30.4°F-0.9°C 96% 1.2 mph SE1.9 kmh SE 3.5 mph5.6 kmh 30.11 in1019.6 mb - 0.00 in0.0 mm 0.00 in0.0 mm
12:30 AM 31.5°F-0.3°C 30.7°F-0.7°C 97% 2.3 mph E3.7 kmh E 5.8 mph9.3 kmh 30.11 in1019.6 mb - 0.00 in0.0 mm 0.00 in0.0 mm
12:45 AM 31.4°F-0.3°C 30.6°F-0.8°C 97% 2.3 mph E3.7 kmh E 3.5 mph5.6 kmh 30.11 in1019.6 mb - 0.00 in0.0 mm 0.00 in0.0 mm
01:00 AM 31.2°F-0.4°C 30.4°F-0.9°C 97% 2.3 mph E3.7 kmh E 2.3 mph3.7 kmh 30.11 in1019.6 mb - 0.00 in0.0 mm 0.00 in0.0 mm
01:15 AM 31.2°F-0.4°C 30.2°F-1.0°C 96% 3.5 mph E5.6 kmh E 4.6 mph7.4 kmh 30.10 in1019.3 mb - 0.00 in0.0 mm 0.00 in0.0 mm
01:30 AM 31.2°F-0.4°C 30.2°F-1.0°C 96% 1.2 mph E1.9 kmh E 2.3 mph3.7 kmh 30.10 in1019.3 mb - 0.00 in0.0 mm 0.00 in0.0 mm
01:45 AM 31.2°F-0.4°C 30.2°F-1.0°C 96% 1.2 mph E1.9 kmh E 3.5 mph5.6 kmh 30.10 in1019.3 mb - 0.00 in0.0 mm 0.00 in0.0 mm
02:00 AM 31.2°F-0.4°C 30.2°F-1.0°C 96% 1.2 mph E1.9 kmh E 3.5 mph5.6 kmh 30.10 in1019.3 mb - 0.00 in0.0 mm 0.00 in0.0 mm
02:15 AM 31.3°F-0.4°C 30.5°F-0.8°C 97% 1.2 mph E1.9 kmh E 2.3 mph3.7 kmh 30.09 in1019.0 mb - 0.00 in0.0 mm 0.00 in0.0 mm
02:30 AM 31.3°F-0.4°C 30.5°F-0.8°C 97% 1.2 mph E1.9 kmh E 4.6 mph7.4 kmh 30.09 in1019.0 mb - 0.00 in0.0 mm 0.00 in0.0 mm
02:45 AM 31.2°F-0.4°C 30.2°F-1.0°C 96% 1.2 mph E1.9 kmh E 3.5 mph5.6 kmh 30.09 in1019.0 mb - 0.00 in0.0 mm 0.00 in0.0 mm
03:00 AM 31.2°F-0.4°C 30.2°F-1.0°C 96% 1.2 mph E1.9 kmh E 3.5 mph5.6 kmh 30.08 in1018.6 mb - 0.00 in0.0 mm 0.00 in0.0 mm
03:15 AM 31.2°F-0.4°C 30.2°F-1.0°C 96% 1.2 mph ENE1.9 kmh ENE 2.3 mph3.7 kmh 30.08 in1018.6 mb - 0.00 in0.0 mm 0.00 in0.0 mm
03:30 AM 31.2°F-0.4°C 30.2°F-1.0°C 96% 1.2 mph ENE1.9 kmh ENE 2.3 mph3.7 kmh 30.08 in1018.6 mb - 0.00 in0.0 mm 0.00 in0.0 mm
03:45 AM 31.2°F-0.4°C 30.2°F-1.0°C 96% Calm Calm 1.2 mph1.9 kmh 30.08 in1018.6 mb - 0.00 in0.0 mm 0.00 in0.0 mm
04:00 AM 31.2°F-0.4°C 30.2°F-1.0°C 96% Calm Calm 1.2 mph1.9 kmh 30.08 in1018.6 mb - 0.00 in0.0 mm 0.00 in0.0 mm
04:15 AM 31.2°F-0.4°C 30.2°F-1.0°C 96% Calm Calm 1.2 mph1.9 kmh 30.08 in1018.6 mb - 0.00 in0.0 mm 0.00 in0.0 mm
04:30 AM 31.3°F-0.4°C 30.3°F-0.9°C 96% Calm Calm -- 30.08 in1018.6 mb - 0.00 in0.0 mm 0.00 in0.0 mm
04:45 AM 31.3°F-0.4°C 30.3°F-0.9°C 96% Calm Calm -- 30.08 in1018.6 mb - 0.00 in0.0 mm 0.00 in0.0 mm
05:00 AM 31.4°F-0.3°C 30.4°F-0.9°C 96% Calm Calm -- 30.09 in1019.0 mb - 0.00 in0.0 mm 0.00 in0.0 mm
05:15 AM 31.4°F-0.3°C 30.4°F-0.9°C 96% 1.2 mph SW1.9 kmh SW 1.2 mph1.9 kmh 30.09 in1019.0 mb - 0.00 in0.0 mm 0.00 in0.0 mm
05:30 AM 31.4°F-0.3°C 30.4°F-0.9°C 96% 1.2 mph SW1.9 kmh SW 3.5 mph5.6 kmh 30.09 in1019.0 mb - 0.00 in0.0 mm 0.00 in0.0 mm
05:45 AM 31.4°F-0.3°C 30.4°F-0.9°C 96% Calm Calm 1.2 mph1.9 kmh 30.10 in1019.3 mb - 0.00 in0.0 mm 0.00 in0.0 mm
06:00 AM 31.5°F-0.3°C 30.5°F-0.8°C 96% 1.2 mph W1.9 kmh W 2.3 mph3.7 kmh 30.11 in1019.6 mb - 0.00 in0.0 mm 0.00 in0.0 mm
06:15 AM 31.5°F-0.3°C 30.5°F-0.8°C 96% Calm Calm 1.2 mph1.9 kmh 30.12 in1020.0 mb - 0.00 in0.0 mm 0.00 in0.0 mm
06:30 AM 31.6°F-0.2°C 30.6°F-0.8°C 96% Calm Calm 1.2 mph1.9 kmh 30.12 in1020.0 mb - 0.00 in0.0 mm 0.00 in0.0 mm
06:45 AM 31.7°F-0.2°C 30.7°F-0.7°C 96% 1.2 mph W1.9 kmh W 2.3 mph3.7 kmh 30.13 in1020.3 mb - 0.00 in0.0 mm 0.00 in0.0 mm
07:00 AM 31.7°F-0.2°C 30.7°F-0.7°C 96% Calm Calm -- 30.14 in1020.7 mb - 0.00 in0.0 mm 0.00 in0.0 mm
07:15 AM 31.7°F-0.2°C 30.7°F-0.7°C 96% Calm Calm -- 30.14 in1020.7 mb - 0.00 in0.0 mm 0.00 in0.0 mm
07:30 AM 31.7°F-0.2°C 30.7°F-0.7°C 96% Calm Calm -- 30.15 in1021.0 mb - 0.00 in0.0 mm 0.00 in0.0 mm
07:45 AM 31.8°F-0.1°C 30.8°F-0.7°C 96% Calm Calm -- 30.16 in1021.3 mb - 0.00 in0.0 mm 0.00 in0.0 mm
08:00 AM 32.0°F0.0°C 31.2°F-0.4°C 97% Calm Calm -- 30.16 in1021.3 mb - 0.00 in0.0 mm 0.00 in0.0 mm
08:15 AM 32.2°F0.1°C 31.2°F-0.4°C 96% Calm Calm -- 30.17 in1021.7 mb - 0.00 in0.0 mm 0.00 in0.0 mm
08:30 AM 32.4°F0.2°C 31.4°F-0.3°C 96% Calm Calm -- 30.18 in1022.0 mb - 0.00 in0.0 mm 0.00 in0.0 mm
08:45 AM 32.9°F0.5°C 31.9°F-0.1°C 96% 1.2 mph SW1.9 kmh SW 2.3 mph3.7 kmh 30.18 in1022.0 mb - 0.00 in0.0 mm 0.00 in0.0 mm
09:00 AM 33.0°F0.6°C 31.7°F-0.2°C 95% 2.3 mph SW3.7 kmh SW 3.5 mph5.6 kmh 30.20 in1022.7 mb - 0.00 in0.0 mm 0.00 in0.0 mm
09:15 AM 32.9°F0.5°C 31.6°F-0.2°C 95% 2.3 mph W3.7 kmh W 3.5 mph5.6 kmh 30.20 in1022.7 mb - 0.00 in0.0 mm 0.00 in0.0 mm
09:30 AM 32.7°F0.4°C 30.9°F-0.6°C 93% 1.2 mph NW1.9 kmh NW 1.2 mph1.9 kmh 30.20 in1022.7 mb - 0.00 in0.0 mm 0.00 in0.0 mm
09:45 AM 32.9°F0.5°C 30.6°F-0.8°C 91% Calm Calm 3.5 mph5.6 kmh 30.21 in1023.0 mb - 0.00 in0.0 mm 0.00 in0.0 mm
10:00 AM 33.1°F0.6°C 30.8°F-0.7°C 91% 2.3 mph WSW3.7 kmh WSW 3.5 mph5.6 kmh 30.22 in1023.4 mb - 0.00 in0.0 mm 0.00 in0.0 mm
10:15 AM 33.4°F0.8°C 31.1°F-0.5°C 91% 2.3 mph NW3.7 kmh NW 3.5 mph5.6 kmh 30.23 in1023.7 mb - 0.00 in0.0 mm 0.00 in0.0 mm
10:30 AM 33.5°F0.8°C 30.9°F-0.6°C 90% Calm Calm -- 30.23 in1023.7 mb - 0.02 in0.5 mm 0.02 in0.5 mm
10:45 AM 33.4°F0.8°C 30.8°F-0.7°C 90% 2.3 mph W3.7 kmh W 3.5 mph5.6 kmh 30.24 in1024.0 mb - 0.01 in0.3 mm 0.02 in0.5 mm
11:00 AM 33.4°F0.8°C 30.8°F-0.7°C 90% 2.3 mph WSW3.7 kmh WSW 3.5 mph5.6 kmh 30.24 in1024.0 mb - 0.01 in0.3 mm 0.03 in0.8 mm
11:15 AM 34.4°F1.3°C 29.2°F-1.6°C 81% 1.2 mph W1.9 kmh W 2.3 mph3.7 kmh 30.25 in1024.4 mb - 0.01 in0.3 mm 0.04 in1.0 mm
11:30 AM 34.3°F1.3°C 30.3°F-0.9°C 85% 1.2 mph WNW1.9 kmh WNW 2.3 mph3.7 kmh 30.25 in1024.4 mb - 0.00 in0.0 mm 0.04 in1.0 mm
11:45 AM 34.7°F1.5°C 29.8°F-1.2°C 82% Calm Calm 1.2 mph1.9 kmh 30.26 in1024.7 mb - 0.01 in0.3 mm 0.05 in1.3 mm
12:00 PM 34.9°F1.6°C 30.0°F-1.1°C 82% 2.3 mph SE3.7 kmh SE 2.3 mph3.7 kmh 30.26 in1024.7 mb - 0.00 in0.0 mm 0.05 in1.3 mm
12:15 PM 34.6°F1.4°C 30.3°F-0.9°C 84% 1.2 mph SE1.9 kmh SE 1.2 mph1.9 kmh 30.26 in1024.7 mb - 0.00 in0.0 mm 0.05 in1.3 mm
12:30 PM 34.7°F1.5°C 30.9°F-0.6°C 86% 2.3 mph NW3.7 kmh NW 6.9 mph11.1 kmh 30.26 in1024.7 mb - 0.00 in0.0 mm 0.05 in1.3 mm
12:45 PM 34.7°F1.5°C 30.7°F-0.7°C 85% 2.3 mph NW3.7 kmh NW 3.5 mph5.6 kmh 30.26 in1024.7 mb - 0.00 in0.0 mm 0.05 in1.3 mm
01:00 PM 35.4°F1.9°C 30.8°F-0.7°C 83% Calm Calm 1.2 mph1.9 kmh 30.25 in1024.4 mb - 0.00 in0.0 mm 0.05 in1.3 mm
01:15 PM 35.6°F2.0°C 29.7°F-1.3°C 79% 1.2 mph NW1.9 kmh NW 3.5 mph5.6 kmh 30.25 in1024.4 mb - 0.00 in0.0 mm 0.05 in1.3 mm
01:30 PM 36.2°F2.3°C 30.6°F-0.8°C 80% 3.5 mph WNW5.6 kmh WNW 5.8 mph9.3 kmh 30.25 in1024.4 mb - 0.00 in0.0 mm 0.05 in1.3 mm
01:45 PM 35.4°F1.9°C 31.1°F-0.5°C 84% 1.2 mph WNW1.9 kmh WNW 2.3 mph3.7 kmh 30.25 in1024.4 mb - 0.00 in0.0 mm 0.05 in1.3 mm
02:00 PM 35.9°F2.2°C 30.6°F-0.8°C 81% 2.3 mph NW3.7 kmh NW 5.8 mph9.3 kmh 30.25 in1024.4 mb - 0.00 in0.0 mm 0.05 in1.3 mm
02:15 PM 35.5°F1.9°C 29.6°F-1.3°C 79% 4.6 mph NNW7.4 kmh NNW 4.6 mph7.4 kmh 30.25 in1024.4 mb - 0.00 in0.0 mm 0.05 in1.3 mm
02:30 PM 36.7°F2.6°C 31.8°F-0.1°C 82% 2.3 mph WNW3.7 kmh WNW 3.5 mph5.6 kmh 30.25 in1024.4 mb - 0.00 in0.0 mm 0.05 in1.3 mm
02:45 PM 36.2°F2.3°C 30.3°F-0.9°C 79% 3.5 mph N5.6 kmh N 5.8 mph9.3 kmh 30.26 in1024.7 mb - 0.00 in0.0 mm 0.05 in1.3 mm
03:00 PM 36.1°F2.3°C 29.9°F-1.2°C 78% 2.3 mph NNW3.7 kmh NNW 5.8 mph9.3 kmh 30.26 in1024.7 mb - 0.00 in0.0 mm 0.05 in1.3 mm
03:15 PM 36.0°F2.2°C 30.1°F-1.1°C 79% 2.3 mph N3.7 kmh N 2.3 mph3.7 kmh 30.26 in1024.7 mb - 0.00 in0.0 mm 0.05 in1.3 mm
03:30 PM 36.5°F2.5°C 29.7°F-1.3°C 76% 2.3 mph NNW3.7 kmh NNW 3.5 mph5.6 kmh 30.27 in1025.1 mb - 0.00 in0.0 mm 0.05 in1.3 mm
03:45 PM 36.8°F2.7°C 29.9°F-1.2°C 76% 2.3 mph WNW3.7 kmh WNW 3.5 mph5.6 kmh 30.27 in1025.1 mb - 0.00 in0.0 mm 0.05 in1.3 mm
04:00 PM 36.0°F2.2°C 28.8°F-1.8°C 75% 3.5 mph WNW5.6 kmh WNW 4.6 mph7.4 kmh 30.28 in1025.4 mb - 0.00 in0.0 mm 0.05 in1.3 mm
04:15 PM 36.1°F2.3°C 28.3°F-2.1°C 73% 3.5 mph WNW5.6 kmh WNW 6.9 mph11.1 kmh 30.28 in1025.4 mb - 0.00 in0.0 mm 0.05 in1.3 mm
04:30 PM 36.7°F2.6°C 28.5°F-1.9°C 72% 3.5 mph W5.6 kmh W 4.6 mph7.4 kmh 30.28 in1025.4 mb - 0.00 in0.0 mm 0.05 in1.3 mm
04:45 PM 36.9°F2.7°C 28.7°F-1.8°C 72% 2.3 mph WSW3.7 kmh WSW 3.5 mph5.6 kmh 30.28 in1025.4 mb - 0.00 in0.0 mm 0.05 in1.3 mm
05:00 PM 37.7°F3.2°C 29.1°F-1.6°C 71% 3.5 mph W5.6 kmh W 3.5 mph5.6 kmh 30.29 in1025.7 mb - 0.00 in0.0 mm 0.05 in1.3 mm
05:15 PM 36.2°F2.3°C 28.4°F-2.0°C 73% 3.5 mph N5.6 kmh N 4.6 mph7.4 kmh 30.29 in1025.7 mb - 0.00 in0.0 mm 0.05 in1.3 mm
05:30 PM 35.6°F2.0°C 28.8°F-1.8°C 76% 3.5 mph N5.6 kmh N 3.5 mph5.6 kmh 30.29 in1025.7 mb - 0.00 in0.0 mm 0.05 in1.3 mm
05:45 PM 35.2°F1.8°C 29.6°F-1.3°C 80% 1.2 mph NW1.9 kmh NW 3.5 mph5.6 kmh 30.30 in1026.1 mb - 0.00 in0.0 mm 0.05 in1.3 mm
06:00 PM 34.7°F1.5°C 29.5°F-1.4°C 81% 1.2 mph NE1.9 kmh NE 2.3 mph3.7 kmh 30.31 in1026.4 mb - 0.00 in0.0 mm 0.05 in1.3 mm
06:15 PM 34.5°F1.4°C 29.9°F-1.2°C 83% Calm Calm 1.2 mph1.9 kmh 30.32 in1026.8 mb - 0.00 in0.0 mm 0.05 in1.3 mm
06:30 PM 34.2°F1.2°C 29.9°F-1.2°C 84% 1.2 mph NNE1.9 kmh NNE 1.2 mph1.9 kmh 30.32 in1026.8 mb - 0.00 in0.0 mm 0.05 in1.3 mm
06:45 PM 34.1°F1.2°C 29.7°F-1.3°C 84% 1.2 mph NNE1.9 kmh NNE 2.3 mph3.7 kmh 30.32 in1026.8 mb - 0.00 in0.0 mm 0.05 in1.3 mm
07:00 PM 33.9°F1.1°C 29.3°F-1.5°C 83% Calm Calm 1.2 mph1.9 kmh 30.33 in1027.1 mb - 0.00 in0.0 mm 0.05 in1.3 mm
07:15 PM 33.7°F0.9°C 29.1°F-1.6°C 83% 1.2 mph NNW1.9 kmh NNW 2.3 mph3.7 kmh 30.34 in1027.4 mb - 0.00 in0.0 mm 0.05 in1.3 mm
07:30 PM 33.5°F0.8°C 28.9°F-1.7°C 83% Calm Calm -- 30.34 in1027.4 mb - 0.00 in0.0 mm 0.05 in1.3 mm
07:45 PM 33.2°F0.7°C 28.3°F-2.1°C 82% Calm Calm -- 30.35 in1027.8 mb - 0.00 in0.0 mm 0.05 in1.3 mm
08:00 PM 32.9°F0.5°C 27.4°F-2.6°C 80% Calm Calm -- 30.35 in1027.8 mb - 0.00 in0.0 mm 0.05 in1.3 mm
08:15 PM 32.5°F0.3°C 27.6°F-2.4°C 82% Calm Calm -- 30.36 in1028.1 mb - 0.00 in0.0 mm 0.05 in1.3 mm
08:30 PM 31.8°F-0.1°C 26.9°F-2.8°C 82% Calm Calm -- 30.36 in1028.1 mb - 0.00 in0.0 mm 0.05 in1.3 mm
08:45 PM 31.1°F-0.5°C 26.8°F-2.9°C 84% Calm Calm -- 30.38 in1028.8 mb - 0.00 in0.0 mm 0.05 in1.3 mm
09:00 PM 30.6°F-0.8°C 26.3°F-3.2°C 84% Calm Calm -- 30.37 in1028.4 mb - 0.00 in0.0 mm 0.05 in1.3 mm
09:15 PM 30.1°F-1.1°C 26.4°F-3.1°C 86% Calm Calm -- 30.38 in1028.8 mb - 0.00 in0.0 mm 0.05 in1.3 mm
09:30 PM 29.6°F-1.3°C 26.2°F-3.2°C 87% Calm Calm -- 30.38 in1028.8 mb - 0.00 in0.0 mm 0.05 in1.3 mm
09:45 PM 29.6°F-1.3°C 26.8°F-2.9°C 89% Calm Calm -- 30.39 in1029.1 mb - 0.00 in0.0 mm 0.05 in1.3 mm
10:00 PM 29.9°F-1.2°C 27.1°F-2.7°C 89% Calm Calm -- 30.39 in1029.1 mb - 0.00 in0.0 mm 0.05 in1.3 mm
10:15 PM 29.8°F-1.2°C 27.0°F-2.8°C 89% Calm Calm -- 30.40 in1029.5 mb - 0.00 in0.0 mm 0.05 in1.3 mm
10:30 PM 29.9°F-1.2°C 26.5°F-3.1°C 87% Calm Calm -- 30.40 in1029.5 mb - 0.00 in0.0 mm 0.05 in1.3 mm
10:45 PM 29.8°F-1.2°C 27.0°F-2.8°C 89% Calm Calm -- 30.41 in1029.8 mb - 0.00 in0.0 mm 0.05 in1.3 mm
11:00 PM 29.3°F-1.5°C 26.2°F-3.2°C 88% Calm Calm -- 30.41 in1029.8 mb - 0.00 in0.0 mm 0.05 in1.3 mm
11:15 PM 28.8°F-1.8°C 26.2°F-3.2°C 90% Calm Calm -- 30.41 in1029.8 mb - 0.00 in0.0 mm 0.05 in1.3 mm
11:30 PM 28.3°F-2.1°C 25.7°F-3.5°C 90% Calm Calm -- 30.43 in1030.5 mb - 0.00 in0.0 mm 0.05 in1.3 mm
11:45 PM 27.7°F-2.4°C 25.4°F-3.7°C 91% Calm Calm -- 30.42 in1030.1 mb - 0.00 in0.0 mm 0.05 in1.3 mm